Alexander S Mccall — V7YW9 — position and weather

sailwx.info

Track history (hours):
 
Tides and Currents Weather Stations Pressure Air Temp Water Temp Dewpoint Dewpoint Depression Visibility Wind Speed Wind Dir Waves Ship Positions

Alexander S Mccall

Last reported at 2017-Dec-21 17:41 UTC. Time now 2018-Jul-15 21:02 UTC.
Position N 31°38' E 034°31'.
Warning: this ship's position is months out of date.

Length 55 m; draft 2.1 m.

Type: Passenger vessel. MMSI: 538007647.

Date/timePositionNaut miles runAvg speedWind from/ knotsBaromVisibWave heightAir tempDewpointWater temp
2017-Dec-21 17:41N 31°38' E 034°31'0 0.0
2017-Dec-21 17:23N 31°38' E 034°31'0 0.0
2017-Dec-21 16:47N 31°38' E 034°31'0 0.0
2017-Dec-21 16:29N 31°38' E 034°31'1111.5
2017-Dec-21 15:30N 31°44' E 034°20'2 2.8
2017-Dec-21 14:55N 31°45' E 034°18'1 1.3
2017-Dec-21 14:30N 31°44' E 034°18'0 0.3
2017-Dec-21 12:58N 31°44' E 034°18'5 6.6
2017-Dec-21 12:10N 31°42' E 034°23'317.8
2017-Dec-21 12:00N 31°41' E 034°26'5 6.9
2017-Dec-21 11:17N 31°38' E 034°31'0 0.0
2017-Dec-21 10:56N 31°38' E 034°31'0 0.0
2017-Dec-21 10:26N 31°38' E 034°31'13 0.6
2017-Dec-20 13:24N 31°45' E 034°18'13 0.6
2017-Dec-19 15:20N 31°38' E 034°31'513.0
2017-Dec-19 14:58N 31°40' E 034°26'8 2.1
2017-Dec-19 11:13N 31°45' E 034°18'0 0.4
2017-Dec-19 10:26N 31°45' E 034°18'13 0.7
2017-Dec-18 15:55N 31°38' E 034°31'13 1.9
2017-Dec-18 08:58N 31°44' E 034°18'1 2.2
2017-Dec-18 08:30N 31°45' E 034°18'  
Track history (hours):
 
Tides and Currents Weather Stations Pressure Air Temp Water Temp Dewpoint Dewpoint Depression Visibility Wind Speed Wind Dir Waves Ship Positions

Alexander S Mccall

Last reported at 2017-Dec-21 17:41 UTC. Time now 2018-Jul-15 21:02 UTC.
Position N 31°38' E 034°31'.
Warning: this ship's position is months out of date.

Length 55 m; draft 2.1 m.

Type: Passenger vessel. MMSI: 538007647.

Date/timePositionNaut miles runAvg speedWind from/ knotsBaromVisibWave heightAir tempDewpointWater temp
2017-Dec-21 17:41N 31°38' E 034°31'0 0.0
2017-Dec-21 17:23N 31°38' E 034°31'0 0.0
2017-Dec-21 16:47N 31°38' E 034°31'0 0.0
2017-Dec-21 16:29N 31°38' E 034°31'1111.5
2017-Dec-21 15:30N 31°44' E 034°20'2 2.8
2017-Dec-21 14:55N 31°45' E 034°18'1 1.3
2017-Dec-21 14:30N 31°44' E 034°18'0 0.3
2017-Dec-21 12:58N 31°44' E 034°18'5 6.6
2017-Dec-21 12:10N 31°42' E 034°23'317.8
2017-Dec-21 12:00N 31°41' E 034°26'5 6.9
2017-Dec-21 11:17N 31°38' E 034°31'0 0.0
2017-Dec-21 10:56N 31°38' E 034°31'0 0.0
2017-Dec-21 10:26N 31°38' E 034°31'13 0.6
2017-Dec-20 13:24N 31°45' E 034°18'13 0.6
2017-Dec-19 15:20N 31°38' E 034°31'513.0
2017-Dec-19 14:58N 31°40' E 034°26'8 2.1
2017-Dec-19 11:13N 31°45' E 034°18'0 0.4
2017-Dec-19 10:26N 31°45' E 034°18'13 0.7
2017-Dec-18 15:55N 31°38' E 034°31'13 1.9
2017-Dec-18 08:58N 31°44' E 034°18'1 2.2
2017-Dec-18 08:30N 31°45' E 034°18'  

Dump ship's entire track history